Penticton Airport

CYYF | YYF

Penticton , British-Columbia , Canada

Wednesday, October 23rd, 2019 | 22:51

Weather

CYYF 240500Z 32003KT 320V040 15SM SCT170 05/01 A3042 RMK AC4 SLP312

Charts

No Charts Available

Gates

33 Available

Runways

1 Available

Events

No events for this airport


New event